This is the latest recevied weather packets stored in our database for station/object M0XDC. If no packets are shown the sender has not sent any weather packets the latest 10 day(s).
| Time | Temp. | Humidity | Pressure | Rain* | Wind** | Luminosity | Snow |
|---|---|---|---|---|---|---|---|
| 1787699923 | 17.22° C | 83% | 1011.1 hPa | 0 mm | - | - | - |
| 1787698123 | 17.22° C | 83% | 1010.9 hPa | 0 mm | - | - | - |
| 1787696390 | 17.22° C | 83% | 1011.1 hPa | 0 mm | - | - | - |
| 1787696323 | 17.22° C | 83% | 1011.1 hPa | 0 mm | - | - | - |
| 1787694523 | 17.22° C | 81% | 1010.9 hPa | 0 mm | - | - | - |
| 1787692723 | 17.22° C | 81% | 1011.2 hPa | 0 mm | - | - | - |
| 1787690923 | 17.22° C | 79% | 1011.3 hPa | 0 mm | - | - | - |
| 1787689123 | 17.78° C | 77% | 1011.4 hPa | 0 mm | - | - | - |
| 1787687323 | 17.78° C | 75% | 1011.4 hPa | 0 mm | - | - | - |
| 1787685523 | 18.33° C | 72% | 1011 hPa | 0 mm | - | - | - |
| 1787683723 | 18.89° C | 69% | 1010.8 hPa | 0 mm | - | - | - |
| 1787681923 | 20° C | 65% | 1010.9 hPa | 0 mm | - | - | - |
| 1787680123 | 20.56° C | 60% | 1010.8 hPa | 0 mm | - | - | - |
| 1787678323 | 21.67° C | 56% | 1010.6 hPa | 0 mm | - | - | - |
| 1787676523 | 22.22° C | 49% | 1010.5 hPa | 0 mm | - | - | - |
| 1787674723 | 22.78° C | 47% | 1010.5 hPa | 0 mm | - | - | - |
| 1787672923 | 23.33° C | 44% | 1010.5 hPa | 0 mm | - | - | - |
| 1787671123 | 23.33° C | 40% | 1010.5 hPa | 0 mm | - | - | - |
| 1787669323 | 23.89° C | 42% | 1010.9 hPa | 0 mm | - | - | - |
| 1787667523 | 23.89° C | 41% | 1010.7 hPa | 0 mm | - | - | - |
| 1787665723 | 23.89° C | 41% | 1011 hPa | 0 mm | - | - | - |
| 1787663923 | 23.33° C | 42% | 1011.1 hPa | 0 mm | - | - | - |
| 1787662123 | 22.78° C | 44% | 1011.1 hPa | 0 mm | - | - | - |
| 1787660323 | 22.78° C | 44% | 1011 hPa | 0 mm | - | - | - |
| 1787658523 | 22.78° C | 46% | 1011.4 hPa | 0 mm | - | - | - |
* Rain latest hour (hover to see other rain measurements)
** Current wind speed in m/s (hover to see current wind gust speed)